createdAt,value
2018-03-27T00:00:59.823Z,8.35
2018-03-27T00:03:26.452Z,8.56
2018-03-27T00:05:53.246Z,8.73
2018-03-27T00:08:20.179Z,8.67
2018-03-27T00:10:46.782Z,8.75
2018-03-27T00:13:13.614Z,8.75
2018-03-27T00:15:40.171Z,8.75
2018-03-27T00:18:07.061Z,8.69
2018-03-27T00:20:33.738Z,8.00
2018-03-27T00:23:00.302Z,8.23
2018-03-27T00:25:27.052Z,8.54
2018-03-27T00:28:06.186Z,8.70
2018-03-27T00:30:50.980Z,8.81
2018-03-27T00:33:35.796Z,8.78
2018-03-27T00:36:20.657Z,8.82
2018-03-27T00:39:05.964Z,8.35
2018-03-27T00:44:50.810Z,8.45
2018-03-27T00:47:17.355Z,8.43
2018-03-27T00:49:44.009Z,8.42
2018-03-27T00:52:11.024Z,8.50
2018-03-27T00:54:37.989Z,7.98
2018-03-27T00:57:04.846Z,8.26
2018-03-27T00:59:31.438Z,8.31
2018-03-27T01:01:57.982Z,8.27
2018-03-27T01:04:24.570Z,8.52
2018-03-27T01:06:52.142Z,8.68
2018-03-27T01:09:18.818Z,8.77
2018-03-27T01:11:45.430Z,8.76
2018-03-27T01:14:12.720Z,8.75
2018-03-27T01:16:39.744Z,8.67
2018-03-27T01:19:06.480Z,8.78
2018-03-27T01:21:33.374Z,8.79
2018-03-27T01:24:00.438Z,8.63
2018-03-27T01:26:27.276Z,8.75
2018-03-27T01:28:54.058Z,8.77
2018-03-27T01:31:20.592Z,8.67
2018-03-27T01:33:47.374Z,8.78
2018-03-27T01:36:14.668Z,8.78
2018-03-27T01:38:41.971Z,8.80
2018-03-27T01:41:08.956Z,8.76
2018-03-27T01:43:35.869Z,8.80
2018-03-27T01:46:02.701Z,8.84
2018-03-27T01:48:29.844Z,8.87
2018-03-27T01:50:57.063Z,8.81
2018-03-27T01:53:24.526Z,8.41
2018-03-27T01:55:52.394Z,8.59
2018-03-27T01:58:19.906Z,8.64
2018-03-27T02:00:46.901Z,8.46
2018-03-27T02:03:13.446Z,8.53
2018-03-27T02:05:40.392Z,8.68
2018-03-27T02:08:07.526Z,8.69
2018-03-27T02:10:34.565Z,8.56
2018-03-27T02:13:07.639Z,8.61
2018-03-27T02:15:40.369Z,8.76
2018-03-27T02:18:13.616Z,8.01
2018-03-27T02:20:46.311Z,7.72
2018-03-27T02:23:22.782Z,8.21
2018-03-27T02:25:50.183Z,7.92
2018-03-27T02:28:17.037Z,7.84
2018-03-27T02:30:51.069Z,7.29
2018-03-27T02:33:18.081Z,7.13
2018-03-27T02:35:45.519Z,6.76
2018-03-27T02:38:12.413Z,7.03
2018-03-27T02:40:39.386Z,6.88
2018-03-27T02:43:06.153Z,7.36
2018-03-27T02:45:32.629Z,7.78
2018-03-27T02:47:59.286Z,7.62
2018-03-27T02:50:25.890Z,7.88
2018-03-27T02:52:53.338Z,8.05
2018-03-27T02:55:19.989Z,7.76
2018-03-27T02:57:46.786Z,7.79
2018-03-27T03:00:14.129Z,7.83
2018-03-27T03:02:40.893Z,7.79
2018-03-27T03:05:07.625Z,6.87
2018-03-27T03:07:34.329Z,6.47
2018-03-27T03:10:01.751Z,6.55
2018-03-27T03:12:29.146Z,7.01
2018-03-27T03:14:55.881Z,7.61
2018-03-27T03:17:22.893Z,7.72
2018-03-27T03:19:49.889Z,7.83
2018-03-27T03:22:16.754Z,7.93
2018-03-27T03:24:44.156Z,7.63
2018-03-27T03:27:11.328Z,7.83
2018-03-27T03:29:38.201Z,7.54
2018-03-27T03:32:05.321Z,7.46
2018-03-27T03:34:32.095Z,7.84
2018-03-27T03:36:59.018Z,7.43
2018-03-27T03:39:26.033Z,7.54
2018-03-27T03:41:52.785Z,7.17
2018-03-27T03:44:19.490Z,7.04
2018-03-27T03:46:46.288Z,7.55
2018-03-27T03:49:12.958Z,7.91
2018-03-27T03:51:39.691Z,7.45
2018-03-27T03:54:06.480Z,7.87
2018-03-27T03:56:34.046Z,7.47
2018-03-27T03:59:00.841Z,7.73
2018-03-27T04:01:27.928Z,6.36
2018-03-27T04:03:55.076Z,7.27
2018-03-27T04:06:22.187Z,7.29
2018-03-27T04:08:49.865Z,6.52
2018-03-27T04:11:17.003Z,6.52
2018-03-27T04:13:43.811Z,7.04
2018-03-27T04:16:10.831Z,7.50
2018-03-27T04:18:37.848Z,7.19
2018-03-27T04:21:04.499Z,7.63
2018-03-27T04:23:31.294Z,7.78
2018-03-27T04:25:57.875Z,7.67
2018-03-27T04:28:24.762Z,7.24
2018-03-27T04:30:51.358Z,7.66
2018-03-27T04:33:18.606Z,6.69
2018-03-27T04:35:45.262Z,7.17
2018-03-27T04:38:12.112Z,7.30
2018-03-27T04:40:38.790Z,6.70
2018-03-27T04:43:05.370Z,6.13
2018-03-27T04:45:31.829Z,6.31
2018-03-27T04:47:58.659Z,6.43
2018-03-27T04:50:25.172Z,5.85
2018-03-27T04:52:51.850Z,5.87
2018-03-27T04:55:18.358Z,5.90
2018-03-27T04:57:45.310Z,5.50
2018-03-27T05:00:12.411Z,5.79
2018-03-27T05:02:39.504Z,5.51
2018-03-27T05:05:06.446Z,5.32
2018-03-27T05:07:33.503Z,5.46
2018-03-27T05:10:00.328Z,5.43
2018-03-27T05:12:27.138Z,5.62
2018-03-27T05:14:54.003Z,5.87
2018-03-27T05:17:21.453Z,5.91
2018-03-27T05:19:48.199Z,5.90
2018-03-27T05:22:15.638Z,6.62
2018-03-27T05:24:42.736Z,6.21
2018-03-27T05:27:09.345Z,5.91
2018-03-27T05:29:36.183Z,5.68
2018-03-27T05:32:03.329Z,5.71
2018-03-27T05:34:29.972Z,6.18
2018-03-27T05:36:56.573Z,5.90
2018-03-27T05:39:23.782Z,6.26
2018-03-27T05:41:50.822Z,5.79
2018-03-27T05:44:17.979Z,6.54
2018-03-27T05:46:44.769Z,6.94
2018-03-27T05:49:11.410Z,6.04
2018-03-27T05:51:38.042Z,6.48
2018-03-27T05:54:04.630Z,7.09
2018-03-27T05:56:31.824Z,7.27
2018-03-27T05:58:58.669Z,7.45
2018-03-27T06:01:25.146Z,7.61
2018-03-27T06:03:51.728Z,7.45
2018-03-27T06:06:18.873Z,6.52
2018-03-27T06:08:46.072Z,6.85
2018-03-27T06:11:12.630Z,6.57
2018-03-27T06:13:39.393Z,6.93
2018-03-27T06:16:06.629Z,7.12
2018-03-27T06:18:33.651Z,6.72
2018-03-27T06:21:00.267Z,6.41
2018-03-27T06:23:27.458Z,6.70
2018-03-27T06:25:54.570Z,6.44
2018-03-27T06:28:21.745Z,6.49
2018-03-27T06:30:48.648Z,6.60
2018-03-27T06:33:15.255Z,7.19
2018-03-27T06:35:41.794Z,7.42
2018-03-27T06:38:08.304Z,7.30
2018-03-27T06:40:34.829Z,7.27
2018-03-27T06:43:01.338Z,6.83
2018-03-27T06:45:28.152Z,6.39
2018-03-27T06:47:55.110Z,6.40
2018-03-27T06:50:21.983Z,6.33
2018-03-27T06:52:48.795Z,6.43
2018-03-27T06:55:16.514Z,6.44
2018-03-27T06:57:43.474Z,6.21
2018-03-27T07:00:10.603Z,6.02
2018-03-27T07:02:37.435Z,5.96
2018-03-27T07:05:04.271Z,5.91
2018-03-27T07:07:31.095Z,6.15
2018-03-27T07:09:57.647Z,6.71
2018-03-27T07:12:24.236Z,6.85
2018-03-27T07:14:51.048Z,6.49
2018-03-27T07:17:17.858Z,6.50
2018-03-27T07:19:44.420Z,6.27
2018-03-27T07:22:11.197Z,6.26
2018-03-27T07:24:37.885Z,6.12
2018-03-27T07:27:04.525Z,5.86
2018-03-27T07:29:31.244Z,6.22
2018-03-27T07:31:57.867Z,6.18
2018-03-27T07:34:24.484Z,5.78
2018-03-27T07:36:51.180Z,6.11
2018-03-27T07:39:17.823Z,6.30
2018-03-27T07:41:45.055Z,6.24
2018-03-27T07:44:12.042Z,5.93
2018-03-27T07:46:38.790Z,6.38
2018-03-27T07:49:05.346Z,5.95
2018-03-27T07:51:32.178Z,5.76
2018-03-27T07:53:59.076Z,5.36
2018-03-27T07:56:25.650Z,6.19
2018-03-27T07:58:52.698Z,6.36
2018-03-27T08:01:19.912Z,6.91
2018-03-27T08:03:46.611Z,5.02
2018-03-27T08:08:47.059Z,5.41
2018-03-27T08:11:14.263Z,6.01
2018-03-27T08:13:40.911Z,6.67
2018-03-27T08:16:08.002Z,5.68
2018-03-27T08:18:34.986Z,5.84
2018-03-27T08:21:02.122Z,6.31
2018-03-27T08:23:28.982Z,5.76
2018-03-27T08:25:55.781Z,5.32
2018-03-27T08:28:22.619Z,6.38
2018-03-27T08:30:49.360Z,6.94
2018-03-27T08:33:16.537Z,6.85
2018-03-27T08:35:43.388Z,6.57
2018-03-27T08:38:10.345Z,6.68
2018-03-27T08:40:37.179Z,6.24
2018-03-27T08:43:03.932Z,6.39
2018-03-27T08:45:30.504Z,7.28
2018-03-27T08:47:57.382Z,7.88
2018-03-27T08:50:24.373Z,6.78
2018-03-27T08:52:51.055Z,7.62
2018-03-27T08:55:18.469Z,7.28
2018-03-27T08:57:45.061Z,6.84
2018-03-27T09:00:11.726Z,7.25
2018-03-27T09:02:38.482Z,7.26
2018-03-27T09:05:05.239Z,7.15
2018-03-27T09:07:32.010Z,7.49
2018-03-27T09:09:58.895Z,7.70
2018-03-27T09:12:25.690Z,7.82
2018-03-27T09:14:52.414Z,8.46
2018-03-27T09:17:19.065Z,8.22
2018-03-27T09:19:45.752Z,8.90
2018-03-27T09:22:12.506Z,8.98
2018-03-27T09:24:39.103Z,9.02
2018-03-27T09:27:05.859Z,9.02
2018-03-27T09:29:32.538Z,7.62
2018-03-27T09:31:59.109Z,7.46
2018-03-27T09:34:26.058Z,7.46
2018-03-27T09:36:53.031Z,7.92
2018-03-27T09:39:20.081Z,8.28
2018-03-27T09:41:46.970Z,8.38
2018-03-27T09:44:13.483Z,8.87
2018-03-27T09:46:40.153Z,8.63
2018-03-27T09:49:07.130Z,8.95
2018-03-27T09:51:34.391Z,8.66
2018-03-27T09:54:01.366Z,8.70
2018-03-27T09:56:28.061Z,8.66
2018-03-27T09:58:54.899Z,8.03
2018-03-27T10:01:27.491Z,7.71
2018-03-27T10:03:54.373Z,7.85
2018-03-27T10:06:20.989Z,8.71
2018-03-27T10:08:47.789Z,8.42
2018-03-27T10:11:15.966Z,8.90
2018-03-27T10:13:43.103Z,8.91
2018-03-27T10:16:10.359Z,8.49
2018-03-27T10:18:37.330Z,9.10
2018-03-27T10:21:04.083Z,9.38
2018-03-27T10:23:30.743Z,9.24
2018-03-27T10:25:57.761Z,8.68
2018-03-27T10:28:24.335Z,9.32
2018-03-27T10:30:51.002Z,8.77
2018-03-27T10:33:17.624Z,8.44
2018-03-27T10:35:44.204Z,8.46
2018-03-27T10:38:10.986Z,8.48
2018-03-27T10:40:38.064Z,8.30
2018-03-27T10:43:04.830Z,7.93
2018-03-27T10:45:31.455Z,7.83
2018-03-27T10:47:58.842Z,8.08
2018-03-27T10:50:25.440Z,8.65
2018-03-27T10:52:52.108Z,8.84
2018-03-27T10:55:19.020Z,8.90
2018-03-27T10:57:46.053Z,8.41
2018-03-27T11:00:12.918Z,7.89
2018-03-27T11:02:40.468Z,8.66
2018-03-27T11:05:06.952Z,8.72
2018-03-27T11:07:34.058Z,9.04
2018-03-27T11:10:01.050Z,8.68
2018-03-27T11:12:27.807Z,7.99
2018-03-27T11:14:54.898Z,7.46
2018-03-27T11:17:21.495Z,7.25
2018-03-27T11:19:48.270Z,7.41
2018-03-27T11:22:14.961Z,7.82
2018-03-27T11:24:41.566Z,7.72
2018-03-27T11:27:08.113Z,8.02
2018-03-27T11:29:34.757Z,7.84
2018-03-27T11:32:01.457Z,7.45
2018-03-27T11:34:28.275Z,7.98
2018-03-27T11:36:54.853Z,8.94
2018-03-27T11:39:21.651Z,7.95
2018-03-27T11:41:48.632Z,8.86
2018-03-27T11:44:15.328Z,8.50
2018-03-27T11:46:42.065Z,8.89
2018-03-27T11:49:08.826Z,8.76
2018-03-27T11:51:35.484Z,8.47
2018-03-27T11:54:02.493Z,8.15
2018-03-27T11:56:29.415Z,8.63
2018-03-27T11:58:55.935Z,8.45
2018-03-27T12:01:23.057Z,8.93
2018-03-27T12:03:49.759Z,8.16
2018-03-27T12:06:16.842Z,8.23
2018-03-27T12:08:43.822Z,8.52
2018-03-27T12:11:10.326Z,9.00
2018-03-27T12:13:37.189Z,9.22
2018-03-27T12:16:03.982Z,8.97
2018-03-27T12:18:30.885Z,8.53
2018-03-27T12:20:57.695Z,8.71
2018-03-27T12:23:24.187Z,8.77
2018-03-27T12:25:50.674Z,9.23
2018-03-27T12:28:17.433Z,8.40
2018-03-27T12:30:44.767Z,8.49
2018-03-27T12:33:11.605Z,8.00
2018-03-27T12:35:38.448Z,8.39
2018-03-27T12:38:05.176Z,7.65
2018-03-27T12:40:31.627Z,7.51
2018-03-27T12:42:58.094Z,7.51
2018-03-27T12:45:24.663Z,8.08
2018-03-27T12:47:51.074Z,7.93
2018-03-27T12:50:17.827Z,7.80
2018-03-27T12:52:44.550Z,7.99
2018-03-27T12:55:11.239Z,8.04
2018-03-27T12:57:37.670Z,7.84
2018-03-27T13:00:04.129Z,7.92
2018-03-27T13:02:30.752Z,7.85
2018-03-27T13:04:57.303Z,8.24
2018-03-27T13:07:23.974Z,8.15
2018-03-27T13:09:50.603Z,7.96
2018-03-27T13:12:17.379Z,8.38
2018-03-27T13:14:44.111Z,8.04
2018-03-27T13:17:10.981Z,8.52
2018-03-27T13:19:37.472Z,8.87
2018-03-27T13:22:04.269Z,7.82
2018-03-27T13:24:31.082Z,7.62
2018-03-27T13:26:58.109Z,7.55
2018-03-27T13:29:24.636Z,8.05
2018-03-27T13:31:51.272Z,7.82
2018-03-27T13:34:17.820Z,7.79
2018-03-27T13:36:44.514Z,8.54
2018-03-27T13:39:11.236Z,8.75
2018-03-27T13:41:37.914Z,7.89
2018-03-27T13:44:04.704Z,8.13
2018-03-27T13:46:31.069Z,7.70
2018-03-27T13:48:57.681Z,7.27
2018-03-27T13:51:24.118Z,8.05
2018-03-27T13:53:50.862Z,8.18
2018-03-27T13:56:17.984Z,8.23
2018-03-27T13:58:44.777Z,8.26
2018-03-27T14:01:11.353Z,8.83
2018-03-27T14:03:38.006Z,7.49
2018-03-27T14:06:04.684Z,7.54
2018-03-27T14:08:31.438Z,7.15
2018-03-27T14:10:58.266Z,7.19
2018-03-27T14:13:24.772Z,7.62
2018-03-27T14:15:51.571Z,7.60
2018-03-27T14:18:18.361Z,7.32
2018-03-27T14:20:45.190Z,8.33
2018-03-27T14:23:11.655Z,8.82
2018-03-27T14:25:38.405Z,8.74
2018-03-27T14:28:04.926Z,8.22
2018-03-27T14:30:31.857Z,8.79
2018-03-27T14:32:58.478Z,8.86
2018-03-27T14:35:25.460Z,9.15
2018-03-27T14:37:52.185Z,8.51
2018-03-27T14:40:18.922Z,7.73
2018-03-27T14:42:45.787Z,7.79
2018-03-27T14:45:12.304Z,7.99
2018-03-27T14:47:39.062Z,8.64
2018-03-27T14:50:05.719Z,8.52
2018-03-27T14:52:32.961Z,8.69
2018-03-27T14:54:59.869Z,8.85
2018-03-27T14:57:27.607Z,8.53
2018-03-27T15:02:28.206Z,8.77
2018-03-27T15:04:54.930Z,8.19
2018-03-27T15:07:21.685Z,8.10
2018-03-27T15:09:52.077Z,8.43
2018-03-27T15:12:18.576Z,8.71
2018-03-27T15:14:45.268Z,7.28
2018-03-27T15:17:12.878Z,7.72
2018-03-27T15:19:39.638Z,7.71
2018-03-27T15:22:06.444Z,6.94
2018-03-27T15:24:33.239Z,7.75
2018-03-27T15:26:59.753Z,7.10
2018-03-27T15:29:26.428Z,7.72
2018-03-27T15:31:52.954Z,6.93
2018-03-27T15:34:19.555Z,7.67
2018-03-27T15:36:46.247Z,7.71
2018-03-27T15:39:12.698Z,7.96
2018-03-27T15:41:39.218Z,7.40
2018-03-27T15:44:05.731Z,7.44
2018-03-27T15:46:32.520Z,8.03
2018-03-27T15:48:59.033Z,7.80
2018-03-27T15:51:25.748Z,7.50
2018-03-27T15:53:52.289Z,7.28
2018-03-27T15:56:19.110Z,7.44
2018-03-27T15:58:45.810Z,7.90
2018-03-27T16:01:12.323Z,8.33
2018-03-27T16:03:39.083Z,8.58
2018-03-27T16:06:05.685Z,8.11
2018-03-27T16:08:32.289Z,7.76
2018-03-27T16:10:59.063Z,8.38
2018-03-27T16:13:26.131Z,8.08
2018-03-27T16:15:53.444Z,7.86
2018-03-27T16:18:20.488Z,7.34
2018-03-27T16:20:47.132Z,7.31
2018-03-27T16:23:13.739Z,7.17
2018-03-27T16:25:40.326Z,7.98
2018-03-27T16:28:07.028Z,8.18
2018-03-27T16:30:33.683Z,8.15
2018-03-27T16:33:00.400Z,6.91
2018-03-27T16:35:26.948Z,7.42
2018-03-27T16:37:53.682Z,7.93
2018-03-27T16:40:20.465Z,6.57
2018-03-27T16:42:47.239Z,7.66
2018-03-27T16:45:14.112Z,7.61
2018-03-27T16:47:41.014Z,7.23
2018-03-27T16:50:07.637Z,6.98
2018-03-27T16:52:34.168Z,7.59
2018-03-27T16:55:00.934Z,7.23
2018-03-27T16:57:27.527Z,7.07
2018-03-27T16:59:54.071Z,6.84
2018-03-27T17:02:20.659Z,6.67
2018-03-27T17:04:47.408Z,7.15
2018-03-27T17:07:14.069Z,6.86
2018-03-27T17:09:40.763Z,7.33
2018-03-27T17:12:07.517Z,7.11
2018-03-27T17:14:34.326Z,7.47
2018-03-27T17:17:00.962Z,6.83
2018-03-27T17:19:27.464Z,7.04
2018-03-27T17:21:54.010Z,6.04
2018-03-27T17:24:20.840Z,6.23
2018-03-27T17:26:47.370Z,6.98
2018-03-27T17:29:13.969Z,6.51
2018-03-27T17:31:40.421Z,7.15
2018-03-27T17:34:07.468Z,6.19
2018-03-27T17:36:34.259Z,6.74
2018-03-27T17:39:00.980Z,7.49
2018-03-27T17:41:27.534Z,7.64
2018-03-27T17:43:54.172Z,7.63
2018-03-27T17:46:21.116Z,7.90
2018-03-27T17:48:47.774Z,7.57
2018-03-27T17:51:14.420Z,6.90
2018-03-27T17:53:41.132Z,7.18
2018-03-27T17:56:07.950Z,7.61
2018-03-27T17:58:34.802Z,7.12
2018-03-27T18:01:01.580Z,6.63
2018-03-27T18:03:28.194Z,6.92
2018-03-27T18:05:55.136Z,7.63
2018-03-27T18:08:22.308Z,7.22
2018-03-27T18:10:49.654Z,7.58
2018-03-27T18:13:16.574Z,7.89
2018-03-27T18:15:43.142Z,8.06
2018-03-27T18:18:09.894Z,8.15
2018-03-27T18:20:38.438Z,7.89
2018-03-27T18:23:05.210Z,6.76
2018-03-27T18:25:31.823Z,7.10
2018-03-27T18:27:58.423Z,7.68
2018-03-27T18:30:25.072Z,7.84
2018-03-27T18:32:52.219Z,7.45
2018-03-27T18:35:18.688Z,7.76
2018-03-27T18:37:45.638Z,7.98
2018-03-27T18:40:12.455Z,7.67
2018-03-27T18:42:39.417Z,7.99
2018-03-27T18:45:06.261Z,7.93
2018-03-27T18:47:32.893Z,7.94
2018-03-27T18:49:59.524Z,7.99
2018-03-27T18:52:26.132Z,7.93
2018-03-27T18:54:52.606Z,7.91
2018-03-27T18:57:19.454Z,7.87
2018-03-27T18:59:45.971Z,7.78
2018-03-27T19:02:12.454Z,7.49
2018-03-27T19:04:44.703Z,7.94
2018-03-27T19:07:11.775Z,8.12
2018-03-27T19:09:38.361Z,8.13
2018-03-27T19:12:04.838Z,8.15
2018-03-27T19:14:31.530Z,8.13
2018-03-27T19:16:58.166Z,8.33
2018-03-27T19:19:24.787Z,8.47
2018-03-27T19:21:51.500Z,8.52
2018-03-27T19:24:18.995Z,8.43
2018-03-27T19:26:45.729Z,8.25
2018-03-27T19:29:12.102Z,8.14
2018-03-27T19:31:38.709Z,8.13
2018-03-27T19:34:05.394Z,8.34
2018-03-27T19:36:32.234Z,8.45
2018-03-27T19:38:58.710Z,8.42
2018-03-27T19:41:25.197Z,8.55
2018-03-27T19:43:51.688Z,8.57
2018-03-27T19:46:18.206Z,8.61
2018-03-27T19:48:44.811Z,8.63
2018-03-27T19:51:11.379Z,8.55
2018-03-27T19:53:38.044Z,8.66
2018-03-27T19:56:04.574Z,8.70
2018-03-27T19:58:31.103Z,8.64
2018-03-27T20:00:57.824Z,8.64
2018-03-27T20:03:24.380Z,8.73
2018-03-27T20:05:50.987Z,8.82
2018-03-27T20:08:17.599Z,8.83
2018-03-27T20:10:44.363Z,7.24
2018-03-27T20:13:10.928Z,8.16
2018-03-27T20:15:41.702Z,8.35
2018-03-27T20:18:04.442Z,8.52
2018-03-27T20:20:30.914Z,8.34
2018-03-27T20:22:57.460Z,8.50
2018-03-27T20:25:23.995Z,8.43
2018-03-27T20:27:50.418Z,8.01
2018-03-27T20:30:17.069Z,8.32
2018-03-27T20:32:43.617Z,8.29
2018-03-27T20:35:10.059Z,8.39
2018-03-27T20:37:36.671Z,8.54
2018-03-27T20:40:03.299Z,8.58
2018-03-27T20:42:30.052Z,8.48
2018-03-27T20:44:56.736Z,7.91
2018-03-27T20:49:46.317Z,8.30
2018-03-27T20:52:13.385Z,8.43
2018-03-27T20:54:39.959Z,8.35
2018-03-27T20:57:13.467Z,8.25
2018-03-27T20:59:40.294Z,8.37
2018-03-27T21:02:06.873Z,6.97
2018-03-27T21:04:33.548Z,6.82
2018-03-27T21:07:00.277Z,7.21
2018-03-27T21:09:26.817Z,7.52
2018-03-27T21:11:53.402Z,7.58
2018-03-27T21:14:19.934Z,6.96
2018-03-27T21:16:46.686Z,7.53
2018-03-27T21:19:13.426Z,7.98
2018-03-27T21:21:40.043Z,8.21
2018-03-27T21:24:06.588Z,8.28
2018-03-27T21:26:32.954Z,8.43
2018-03-27T21:28:59.473Z,8.51
2018-03-27T21:31:26.026Z,8.53
2018-03-27T21:33:52.509Z,8.33
2018-03-27T21:36:19.301Z,7.91
2018-03-27T21:38:45.737Z,7.11
2018-03-27T21:41:12.366Z,7.97
2018-03-27T21:43:38.737Z,7.08
2018-03-27T21:46:05.378Z,7.61
2018-03-27T21:48:31.921Z,7.11
2018-03-27T21:50:58.556Z,7.95
2018-03-27T21:53:25.265Z,7.93
2018-03-27T21:55:51.934Z,7.53
2018-03-27T21:58:18.814Z,7.78
2018-03-27T22:00:45.345Z,7.07
2018-03-27T22:03:12.171Z,6.94
2018-03-27T22:05:38.804Z,6.80
2018-03-27T22:08:05.262Z,7.52
2018-03-27T22:10:31.640Z,7.85
2018-03-27T22:12:58.234Z,8.16
2018-03-27T22:15:24.687Z,8.29
2018-03-27T22:17:51.255Z,7.17
2018-03-27T22:20:18.297Z,7.67
2018-03-27T22:22:45.018Z,7.92
2018-03-27T22:25:11.676Z,8.03
2018-03-27T22:27:38.142Z,8.17
2018-03-27T22:30:04.722Z,8.14
2018-03-27T22:32:31.298Z,7.68
2018-03-27T22:34:58.050Z,7.79
2018-03-27T22:37:24.784Z,7.57
2018-03-27T22:39:51.597Z,7.84
2018-03-27T22:42:18.258Z,7.90
2018-03-27T22:44:44.971Z,7.80
2018-03-27T22:47:11.451Z,7.81
2018-03-27T22:49:38.185Z,7.19
2018-03-27T22:52:04.910Z,7.10
2018-03-27T22:54:31.416Z,7.63
2018-03-27T22:56:58.166Z,7.00
2018-03-27T22:59:24.735Z,7.61
2018-03-27T23:01:51.286Z,7.36
2018-03-27T23:04:18.072Z,7.61
2018-03-27T23:06:44.643Z,7.60
2018-03-27T23:09:11.261Z,7.84
2018-03-27T23:11:37.784Z,7.88
2018-03-27T23:14:04.194Z,7.86
2018-03-27T23:16:30.587Z,6.37
2018-03-27T23:18:57.159Z,6.52
2018-03-27T23:21:23.963Z,7.31
2018-03-27T23:23:50.578Z,7.60
2018-03-27T23:26:17.194Z,7.70
2018-03-27T23:28:43.661Z,7.65
2018-03-27T23:31:10.267Z,7.84
2018-03-27T23:33:36.813Z,7.86
2018-03-27T23:36:03.521Z,7.88
2018-03-27T23:38:30.138Z,7.95
2018-03-27T23:40:56.752Z,7.92
2018-03-27T23:43:23.369Z,8.00
2018-03-27T23:45:49.866Z,7.94
2018-03-27T23:48:16.364Z,7.12
2018-03-27T23:50:42.721Z,7.62
2018-03-27T23:53:09.092Z,7.75
2018-03-27T23:55:35.705Z,7.83
2018-03-27T23:58:02.272Z,7.83
